KBRL/BRL METAR and TAF weather

Enter ICAO airport designator
Station Type Date Time Source
KBRL METAR 2018/07/21 03:53 UTC NOAA

KBRL 210353Z AUTO 30005KT 10SM CLR 22/18 A2984 RMK AO2 SLP098 T02170178


Station Type Date Time Source
KBRL Decoded METAR 2018/07/21 03:53 UTC NOAA

BURLINGTON REGIONAL AIRPORT, IA, United States (KBRL) 40-46N 91-08W 211M
Jul 20, 2018 - 11:53 PM EDT / 2018.07.21 0353 UTC
Wind: from the WNW (300 degrees) at 6 MPH (5 KT):0
Visibility: 10 mile(s):0
Sky conditions: clear
Temperature: 71.1 F (21.7 C)
Dew Point: 64.0 F (17.8 C)
Relative Humidity: 78%
Pressure (altimeter): 29.84 in. Hg (1010 hPa)
ob: KBRL 210353Z AUTO 30005KT 10SM CLR 22/18 A2984 RMK AO2 SLP098 T02170178
cycle: 4

Station Type Date Time Source
KBRL TAF 2018/07/20 20:42 UTC NOAA

TAF
AMD KBRL 201939Z 2020/2118 29011KT P6SM BKN025
FM211000 31010KT P6SM BKN025
FM211500 33012KT P6SM BKN040


Example: see airport list